Saint John, WA

6:12 AM PST on November 22, 2014 (GMT -0800)
Spokane International | Change Station
CLOSE
Current Station
Airport
Location: Spokane,
Elevation: 2365 ft
Nearby Weather Stations

Elev 2365 ft 47.62 °N, 117.53 °W | Updated 19 minutes ago

Overcast
Overcast
34 °F
Feels Like 22 °F
N
22
Wind Variable Wind from SW
Gusts 29 mph

Today
High -- | Low -- °F
--% Chance of Precip.
Yesterday
High -- | Low -- °F
Precip. -- in
7:04 AM 4:08 PM
New Moon, 0% visible
Pressure 29.56 in
Visibility 7.0 miles
Clouds Few 400 ft
Scattered Clouds 800 ft
Mostly Cloudy 1200 ft
Windchill 22 °F
Dew Point 32 °F
Humidity 92%
Rainfall 0.00 in
Snow Depth Not available.
UV 0 out of 12
Pollen .10 out of 12
Air Quality Not available.
Flu Activity Not available.
METAR KGEG 221353Z 23019G25KT 7SM FEW004 SCT008 BKN012 01/00 A2952 RMK AO2 SLP010 T00110000

More Conditions Fewer Conditions

Pressure 29.56 in
Visibility 7.0 miles
Clouds Few 400 ft
Scattered Clouds 800 ft
Mostly Cloudy 1200 ft
Windchill 22 °F
Dew Point 32 °F
Humidity 92%
Rainfall 0.00 in
Snow Depth Not available.
UV 0 out of 12
Pollen .10 out of 12
Air Quality Not available.
Flu Activity Not available.
METAR KGEG 221353Z 23019G25KT 7SM FEW004 SCT008 BKN012 01/00 A2952 RMK AO2 SLP010 T00110000

More Conditions Fewer Conditions

10-Day Weather Forecast

Almanac

Astronomy

Nov. 22, 2014 Rise Set
Actual Time
Civil Twilight
Nautical Twilight
Astronomical Twilight
Moon
Length of Visible Light
Length of Day
Tomorrow will be .
, % of the Moon is Illuminated

Today's Extremes

State Highs State Lows

Community

WunderPhotos

Upload Photos

1,772,818 photos uploaded!

WunderBlogs® & News

Nearby

Air Quality

  Air Quality AQ Index Pollutant
Not available.

Snow Depth

Station Depth Elevation

Earthquake Activity

City Distance Mag. Time & Date
Minimum magnitude displayed is 2.5.

Coastal Water Temperatures

Place Temperature

Nearby Weather Stations